Time;durP1;ratioP1;P1;durP2;ratioP2;P2;SDS_P1;SDS_P2;PMS_P1;PMS_P2;Temp;Humidity;BMP_temperature;BMP_pressure;BME280_temperature;BME280_humidity;BME280_pressure;Samples;Min_cycle;Max_cycle;Signal;HPM_P1;HPM_P2
2023/05/26 00:01:24;;;;;;;;;;;17.50;87.50;;;;;;6146637;23;20213;-96
2023/05/26 00:03:50;;;;;;;;;;;17.40;87.50;;;;;;6147058;23;19912;-96
2023/05/26 00:06:20;;;;;;;;;;;17.50;87.30;;;;;;6147907;23;19905;-96
2023/05/26 00:08:49;;;;;;;;;;;17.40;87.30;;;;;;6147245;23;19905;-96
2023/05/26 00:11:16;;;;;;;;;;;17.30;87.10;;;;;;6148499;23;19932;-96
2023/05/26 00:13:42;;;;;;;;;;;17.30;87.10;;;;;;6147011;23;19917;-96
2023/05/26 00:16:08;;;;;;;;;;;17.30;87.10;;;;;;6146064;23;20254;-96
2023/05/26 00:18:37;;;;;;;;;;;17.30;87.00;;;;;;6146470;23;19913;-96
2023/05/26 00:21:03;;;;;;;;;;;17.30;87.30;;;;;;6146146;23;19945;-96
2023/05/26 00:23:29;;;;;;;;;;;17.40;87.00;;;;;;6146636;23;19912;-96
2023/05/26 00:25:56;;;;;;;;;;;17.50;86.60;;;;;;6146683;23;20324;-96
2023/05/26 00:28:22;;;;;;;;;;;17.50;86.20;;;;;;6146547;23;19975;-96
2023/05/26 00:30:48;;;;;;;;;;;17.50;86.00;;;;;;6146016;23;19905;-96
2023/05/26 00:33:14;;;;;;;;;;;17.40;86.10;;;;;;6145191;23;19927;-96
2023/05/26 00:35:40;;;;;;;;;;;17.40;86.10;;;;;;6144816;23;19905;-96
2023/05/26 00:38:06;;;;;;;;;;;17.30;86.30;;;;;;6145390;23;19928;-96
2023/05/26 00:40:35;;;;;;;;;;;17.20;86.70;;;;;;6145032;23;19905;-96
2023/05/26 00:43:01;;;;;;;;;;;17.20;86.80;;;;;;6144817;23;19972;-96
2023/05/26 00:45:29;;;;;;;;;;;17.10;86.90;;;;;;6145099;23;19945;-96
2023/05/26 00:47:55;;;;;;;;;;;17.00;87.20;;;;;;6144351;23;19912;-96
2023/05/26 00:50:22;;;;;;;;;;;17.00;87.30;;;;;;6144064;23;19944;-96
2023/05/26 00:52:47;;;;;;;;;;;17.00;87.40;;;;;;6143512;23;19905;-96
2023/05/26 00:55:14;;;;;;;;;;;16.90;87.00;;;;;;6144077;23;19951;-96
2023/05/26 00:57:40;;;;;;;;;;;17.00;86.60;;;;;;6144750;23;19963;-96
2023/05/26 01:00:09;;;;;;;;;;;17.00;86.80;;;;;;6143534;23;19905;-96
2023/05/26 01:02:37;;;;;;;;;;;17.00;86.80;;;;;;6143839;23;19960;-96
2023/05/26 01:05:04;;;;;;;;;;;17.00;86.90;;;;;;6143431;23;19912;-96
2023/05/26 01:07:30;;;;;;;;;;;16.80;87.20;;;;;;6143987;23;19905;-96
2023/05/26 01:09:56;;;;;;;;;;;16.80;87.50;;;;;;6168115;23;19948;-96
2023/05/26 01:12:48;;;;;;;;;;;16.90;87.50;;;;;;6144646;23;19928;-96
2023/05/26 01:15:26;;;;;;;;;;;16.90;87.00;;;;;;6114579;23;19962;-96
2023/05/26 01:18:03;;;;;;;;;;;16.80;87.20;;;;;;6146207;23;19912;-96
2023/05/26 01:20:40;;;;;;;;;;;16.80;87.40;;;;;;6119366;23;19905;-96
2023/05/26 01:23:17;;;;;;;;;;;16.80;87.90;;;;;;6121011;23;19905;-96
2023/05/26 01:25:52;;;;;;;;;;;16.70;87.90;;;;;;6119763;23;19912;-96
2023/05/26 01:28:22;;;;;;;;;;;16.70;88.20;;;;;;6119601;23;19905;-96
2023/05/26 01:30:48;;;;;;;;;;;16.60;88.30;;;;;;6119772;23;19905;-96
2023/05/26 01:33:16;;;;;;;;;;;16.60;88.30;;;;;;6121310;23;19911;-96
2023/05/26 01:35:42;;;;;;;;;;;16.60;88.00;;;;;;6120274;23;19928;-96
2023/05/26 01:38:09;;;;;;;;;;;16.60;87.90;;;;;;6120279;23;19906;-96
2023/05/26 01:40:36;;;;;;;;;;;16.50;88.30;;;;;;6120622;23;19991;-96
2023/05/26 01:43:23;;;;;;;;;;;16.60;88.20;;;;;;6120633;23;19912;-96
2023/05/26 01:45:55;;;;;;;;;;;16.60;88.10;;;;;;6145474;23;19905;-96
2023/05/26 01:48:22;;;;;;;;;;;16.50;88.10;;;;;;6144877;23;19912;-96
2023/05/26 01:50:56;;;;;;;;;;;16.40;88.60;;;;;;6144914;23;19912;-96
2023/05/26 01:53:26;;;;;;;;;;;16.30;88.90;;;;;;6144926;23;19931;-96
2023/05/26 01:55:54;;;;;;;;;;;16.30;88.90;;;;;;6144507;23;19905;-96
2023/05/26 01:58:21;;;;;;;;;;;16.30;89.00;;;;;;6144920;23;19925;-96
2023/05/26 02:00:48;;;;;;;;;;;16.30;89.00;;;;;;6144576;23;19979;-96
2023/05/26 02:03:14;;;;;;;;;;;16.20;89.20;;;;;;6146059;23;19925;-96
2023/05/26 02:05:41;;;;;;;;;;;16.20;89.30;;;;;;6148099;23;19905;-96
2023/05/26 02:08:07;;;;;;;;;;;16.30;89.00;;;;;;6148335;23;19925;-96
2023/05/26 02:10:33;;;;;;;;;;;16.30;88.80;;;;;;6148836;23;19905;-96
2023/05/26 02:12:59;;;;;;;;;;;16.30;88.70;;;;;;6190194;23;19943;-96
2023/05/26 02:15:25;;;;;;;;;;;16.20;88.60;;;;;;6180749;23;19920;-96
2023/05/26 02:17:54;;;;;;;;;;;16.10;88.70;;;;;;6181064;23;19904;-96
2023/05/26 02:20:20;;;;;;;;;;;16.20;88.50;;;;;;6208175;23;19904;-96
2023/05/26 02:22:46;;;;;;;;;;;16.20;88.40;;;;;;6181292;23;20321;-96
2023/05/26 02:25:12;;;;;;;;;;;16.20;88.10;;;;;;6181969;23;19908;-96
2023/05/26 02:27:41;;;;;;;;;;;16.10;88.20;;;;;;6181867;23;19928;-96
2023/05/26 02:30:07;;;;;;;;;;;16.10;88.20;;;;;;6181197;23;19904;-96
2023/05/26 02:32:34;;;;;;;;;;;16.20;87.80;;;;;;6181039;23;20331;-96
2023/05/26 02:35:06;;;;;;;;;;;16.30;87.00;;;;;;6182279;23;19948;-96
2023/05/26 02:37:32;;;;;;;;;;;16.30;86.90;;;;;;6181397;23;19905;-96
2023/05/26 02:39:58;;;;;;;;;;;16.20;87.00;;;;;;6180936;23;19947;-96
2023/05/26 02:42:25;;;;;;;;;;;16.20;87.10;;;;;;6181692;23;19966;-96
2023/05/26 02:44:51;;;;;;;;;;;16.20;87.10;;;;;;6181045;23;19904;-96
2023/05/26 02:47:17;;;;;;;;;;;16.10;87.50;;;;;;6181501;23;19983;-96
2023/05/26 02:49:43;;;;;;;;;;;16.10;87.50;;;;;;6181897;23;19927;-96
2023/05/26 02:52:09;;;;;;;;;;;16.10;87.40;;;;;;6182579;23;19904;-96
2023/05/26 02:54:35;;;;;;;;;;;16.00;87.40;;;;;;6181991;23;19919;-96
2023/05/26 02:57:02;;;;;;;;;;;16.10;87.30;;;;;;6208153;23;19912;-96
2023/05/26 02:59:28;;;;;;;;;;;16.10;87.30;;;;;;6181456;23;19904;-96
2023/05/26 03:01:54;;;;;;;;;;;16.10;87.50;;;;;;6181697;23;19911;-96
2023/05/26 03:04:23;;;;;;;;;;;16.10;87.10;;;;;;6181367;23;19909;-96
2023/05/26 03:06:49;;;;;;;;;;;16.10;87.20;;;;;;6180935;23;19911;-96
2023/05/26 03:09:15;;;;;;;;;;;16.10;87.20;;;;;;6207379;23;19909;-96
2023/05/26 03:11:41;;;;;;;;;;;16.10;87.10;;;;;;6181463;23;19912;-96
2023/05/26 03:14:07;;;;;;;;;;;16.10;87.10;;;;;;6180822;23;19909;-96
2023/05/26 03:16:33;;;;;;;;;;;16.10;87.20;;;;;;6207032;23;19904;-96
2023/05/26 03:18:59;;;;;;;;;;;16.10;87.30;;;;;;6206721;23;19904;-96
2023/05/26 03:21:28;;;;;;;;;;;16.20;87.30;;;;;;6180592;23;19908;-96
2023/05/26 03:23:54;;;;;;;;;;;16.20;87.00;;;;;;6180751;23;19910;-96
2023/05/26 03:26:21;;;;;;;;;;;16.10;87.20;;;;;;6180649;23;19904;-96
2023/05/26 03:28:47;;;;;;;;;;;16.10;87.50;;;;;;6180389;23;19905;-96
2023/05/26 03:31:13;;;;;;;;;;;16.00;87.70;;;;;;6180601;23;19944;-96
2023/05/26 03:33:44;;;;;;;;;;;16.00;87.40;;;;;;6181498;23;19908;-96
2023/05/26 03:36:10;;;;;;;;;;;15.80;87.70;;;;;;6180498;23;19911;-96
2023/05/26 03:38:36;;;;;;;;;;;15.80;88.10;;;;;;6180840;23;19904;-96
2023/05/26 03:41:05;;;;;;;;;;;15.90;87.90;;;;;;6180542;23;19979;-96
2023/05/26 03:43:32;;;;;;;;;;;15.80;88.00;;;;;;6207253;23;19904;-96
2023/05/26 03:45:58;;;;;;;;;;;15.90;87.90;;;;;;6181352;23;19936;-96
2023/05/26 03:48:24;;;;;;;;;;;15.80;87.80;;;;;;6181095;23;19904;-96
2023/05/26 03:50:50;;;;;;;;;;;15.80;88.00;;;;;;6180946;23;19904;-96
2023/05/26 03:53:16;;;;;;;;;;;15.80;87.90;;;;;;6180481;23;19911;-96
2023/05/26 03:55:42;;;;;;;;;;;15.90;87.90;;;;;;6180456;23;19904;-96
2023/05/26 03:58:08;;;;;;;;;;;16.00;87.80;;;;;;6181805;23;20031;-96
2023/05/26 04:00:34;;;;;;;;;;;16.00;87.60;;;;;;6181856;23;19911;-96
2023/05/26 04:03:01;;;;;;;;;;;16.10;87.10;;;;;;6206769;23;19904;-96
2023/05/26 04:05:27;;;;;;;;;;;16.10;87.50;;;;;;6205958;23;19904;-96
2023/05/26 04:07:53;;;;;;;;;;;16.10;87.80;;;;;;6206063;23;19905;-96
2023/05/26 04:10:19;;;;;;;;;;;16.10;87.80;;;;;;6180056;23;19904;-96
2023/05/26 04:12:48;;;;;;;;;;;16.00;88.00;;;;;;6179619;23;19927;-96
2023/05/26 04:15:14;;;;;;;;;;;16.00;88.40;;;;;;6178837;23;19995;-96
2023/05/26 04:17:40;;;;;;;;;;;16.00;88.80;;;;;;6178759;23;19905;-96
2023/05/26 04:20:10;;;;;;;;;;;16.00;88.80;;;;;;6180033;23;19927;-96
2023/05/26 04:22:36;;;;;;;;;;;16.10;88.70;;;;;;6179912;23;19957;-96
2023/05/26 04:25:03;;;;;;;;;;;16.10;88.40;;;;;;6179762;23;19930;-96
2023/05/26 04:27:29;;;;;;;;;;;16.30;88.10;;;;;;6181108;23;20319;-96
2023/05/26 04:29:58;;;;;;;;;;;16.30;88.00;;;;;;6180388;23;19923;-96
2023/05/26 04:32:25;;;;;;;;;;;16.40;87.70;;;;;;6206569;23;19959;-96
2023/05/26 04:34:50;;;;;;;;;;;16.40;87.20;;;;;;6179856;23;19932;-96
2023/05/26 04:37:17;;;;;;;;;;;16.50;87.40;;;;;;6179530;23;19904;-96
2023/05/26 04:39:43;;;;;;;;;;;16.60;87.30;;;;;;6179965;23;19908;-96
2023/05/26 04:42:09;;;;;;;;;;;16.60;87.10;;;;;;6201830;23;20242;-96
2023/05/26 04:44:37;;;;;;;;;;;16.70;86.70;;;;;;6175346;23;19908;-96
2023/05/26 04:47:03;;;;;;;;;;;16.80;86.90;;;;;;6176876;23;19948;-96
2023/05/26 04:49:29;;;;;;;;;;;16.80;86.90;;;;;;6176880;23;19908;-96
2023/05/26 04:51:56;;;;;;;;;;;16.90;86.50;;;;;;6176221;23;19931;-96
2023/05/26 04:54:22;;;;;;;;;;;16.90;86.20;;;;;;6175047;23;19915;-96
2023/05/26 04:56:48;;;;;;;;;;;17.00;86.10;;;;;;6174354;23;19928;-96
2023/05/26 04:59:17;;;;;;;;;;;17.10;85.90;;;;;;6174409;23;19908;-96
2023/05/26 05:01:44;;;;;;;;;;;17.20;86.10;;;;;;6175088;23;19905;-96
2023/05/26 05:04:10;;;;;;;;;;;17.20;85.90;;;;;;6177063;23;19904;-96
2023/05/26 05:06:35;;;;;;;;;;;17.30;85.80;;;;;;6202443;23;19915;-96
2023/05/26 05:09:02;;;;;;;;;;;17.40;86.00;;;;;;6176186;23;20207;-96
2023/05/26 05:11:28;;;;;;;;;;;17.50;85.80;;;;;;6175164;23;19905;-96
2023/05/26 05:13:54;;;;;;;;;;;17.60;85.60;;;;;;6175129;23;19927;-96
2023/05/26 05:16:20;;;;;;;;;;;17.80;85.80;;;;;;6175562;23;19924;-96
2023/05/26 05:18:46;;;;;;;;;;;17.80;85.40;;;;;;6177015;23;19963;-96
2023/05/26 05:21:12;;;;;;;;;;;17.90;84.80;;;;;;6177409;23;19904;-96
2023/05/26 05:23:37;;;;;;;;;;;18.10;85.00;;;;;;6177388;23;19911;-96
2023/05/26 05:26:03;;;;;;;;;;;18.20;84.30;;;;;;6203107;23;19904;-96
2023/05/26 05:28:29;;;;;;;;;;;18.30;83.90;;;;;;6204749;23;19904;-96
2023/05/26 05:30:55;;;;;;;;;;;18.40;82.70;;;;;;6174272;23;19951;-96
2023/05/26 05:33:21;;;;;;;;;;;18.50;82.10;;;;;;6200871;23;19904;-96
2023/05/26 05:35:47;;;;;;;;;;;18.60;82.20;;;;;;6202741;23;19904;-96
2023/05/26 05:38:12;;;;;;;;;;;18.70;82.60;;;;;;6169677;23;19908;-96
2023/05/26 05:40:38;;;;;;;;;;;18.80;82.70;;;;;;6197143;23;19928;-96
2023/05/26 05:43:04;;;;;;;;;;;18.80;81.70;;;;;;6198510;23;19904;-96
2023/05/26 05:45:30;;;;;;;;;;;18.90;81.30;;;;;;6172557;23;19913;-96
2023/05/26 05:47:55;;;;;;;;;;;19.00;81.00;;;;;;6201811;23;19908;-96
2023/05/26 05:50:21;;;;;;;;;;;19.10;81.70;;;;;;6175316;23;19905;-96
2023/05/26 05:52:47;;;;;;;;;;;19.20;81.90;;;;;;6178547;23;19904;-96
2023/05/26 05:55:13;;;;;;;;;;;19.20;82.00;;;;;;6176925;23;19952;-96
2023/05/26 05:57:39;;;;;;;;;;;19.30;82.60;;;;;;6200751;23;19928;-96
2023/05/26 06:00:05;;;;;;;;;;;19.40;82.50;;;;;;6174077;23;19904;-96
2023/05/26 06:02:31;;;;;;;;;;;19.50;83.00;;;;;;6174131;23;19912;-96
2023/05/26 06:04:57;;;;;;;;;;;19.60;82.80;;;;;;6201166;23;19939;-96
2023/05/26 06:07:23;;;;;;;;;;;19.60;81.60;;;;;;6199801;23;19905;-96
2023/05/26 06:09:49;;;;;;;;;;;19.80;81.30;;;;;;6172223;23;20035;-96
2023/05/26 06:12:15;;;;;;;;;;;19.80;81.10;;;;;;6156857;23;20441;-96
2023/05/26 06:14:40;;;;;;;;;;;19.90;81.20;;;;;;6142879;23;19931;-96
2023/05/26 06:17:06;;;;;;;;;;;20.00;80.80;;;;;;6147257;23;19905;-96
2023/05/26 06:19:33;;;;;;;;;;;20.10;81.20;;;;;;6150569;23;19962;-96
2023/05/26 06:21:59;;;;;;;;;;;20.20;80.60;;;;;;6148794;23;19905;-96
2023/05/26 06:24:25;;;;;;;;;;;20.30;79.60;;;;;;6147623;23;19912;-96
2023/05/26 06:26:51;;;;;;;;;;;20.40;79.20;;;;;;6146903;23;19912;-96
2023/05/26 06:29:18;;;;;;;;;;;20.50;78.20;;;;;;6147409;23;19905;-96
2023/05/26 06:31:46;;;;;;;;;;;20.60;78.30;;;;;;6151565;23;19905;-96
2023/05/26 06:34:17;;;;;;;;;;;20.80;77.80;;;;;;6130940;23;19921;-96
2023/05/26 06:42:00;;;;;;;;;;;21.00;77.20;;;;;;6116724;23;20338;-96
2023/05/26 06:44:26;;;;;;;;;;;21.20;77.00;;;;;;6159488;23;19983;-96
2023/05/26 06:46:52;;;;;;;;;;;21.20;77.00;;;;;;6165555;23;19921;-96
2023/05/26 06:49:17;;;;;;;;;;;21.30;76.90;;;;;;6167800;23;19905;-96
2023/05/26 06:51:43;;;;;;;;;;;21.40;76.40;;;;;;6158137;23;19909;-96
2023/05/26 07:03:11;;;;;;;;;;;21.80;74.70;;;;;;6178586;23;20358;-96
2023/05/26 07:05:39;;;;;;;;;;;21.80;75.00;;;;;;6181760;23;19909;-96
2023/05/26 07:08:07;;;;;;;;;;;21.90;75.10;;;;;;6181854;23;19904;-96
2023/05/26 07:10:40;;;;;;;;;;;22.00;74.80;;;;;;6181825;23;19908;-96
2023/05/26 07:13:06;;;;;;;;;;;22.10;73.90;;;;;;6177236;23;19970;-97
2023/05/26 07:15:33;;;;;;;;;;;22.10;74.10;;;;;;6173563;23;19909;-96
2023/05/26 07:17:59;;;;;;;;;;;22.20;73.10;;;;;;6176994;23;19905;-96
2023/05/26 07:21:01;;;;;;;;;;;22.30;70.90;;;;;;6181797;23;19915;-96
2023/05/26 07:23:31;;;;;;;;;;;22.40;70.30;;;;;;6182072;23;19928;-96
2023/05/26 07:26:01;;;;;;;;;;;22.50;70.20;;;;;;6181640;23;19904;-96
2023/05/26 07:28:35;;;;;;;;;;;22.60;70.30;;;;;;6182079;23;19888;-96
2023/05/26 07:31:03;;;;;;;;;;;22.80;71.70;;;;;;6178463;23;19911;-96
2023/05/26 07:33:32;;;;;;;;;;;22.80;70.40;;;;;;6181931;23;19905;-96
2023/05/26 07:36:06;;;;;;;;;;;22.90;70.50;;;;;;6181432;23;19904;-96
2023/05/26 07:38:36;;;;;;;;;;;23.00;67.90;;;;;;6181684;23;19904;-96
2023/05/26 07:41:10;;;;;;;;;;;23.10;69.00;;;;;;6182578;23;19896;-96
2023/05/26 07:43:36;;;;;;;;;;;23.20;69.80;;;;;;6182194;23;19912;-96
2023/05/26 07:46:05;;;;;;;;;;;23.30;68.80;;;;;;6182286;23;19895;-96
2023/05/26 07:48:33;;;;;;;;;;;23.30;68.40;;;;;;6182022;23;19932;-96
2023/05/26 07:51:03;;;;;;;;;;;23.50;69.00;;;;;;6181701;23;19948;-96
2023/05/26 07:53:56;;;;;;;;;;;23.50;68.50;;;;;;6182731;23;19908;-97
2023/05/26 07:56:29;;;;;;;;;;;23.60;68.00;;;;;;6182624;23;19889;-96
2023/05/26 07:58:57;;;;;;;;;;;23.70;65.70;;;;;;6182024;23;19895;-96
2023/05/26 08:01:25;;;;;;;;;;;23.70;66.00;;;;;;6182988;23;19905;-96
2023/05/26 08:03:55;;;;;;;;;;;23.80;68.80;;;;;;6187668;23;19905;-96
2023/05/26 08:06:24;;;;;;;;;;;23.90;68.10;;;;;;6187661;23;19935;-96
2023/05/26 08:08:57;;;;;;;;;;;24.00;67.10;;;;;;6162384;23;19908;-96
2023/05/26 08:11:25;;;;;;;;;;;24.00;65.30;;;;;;6186037;23;19896;-97
2023/05/26 08:13:54;;;;;;;;;;;24.10;66.80;;;;;;6186067;23;19908;-96
2023/05/26 08:16:30;;;;;;;;;;;24.20;66.50;;;;;;6212655;23;19904;-96
2023/05/26 08:19:04;;;;;;;;;;;24.30;68.30;;;;;;6186757;23;19956;-96
2023/05/26 08:21:35;;;;;;;;;;;24.30;66.20;;;;;;6213503;23;19936;-96
2023/05/26 08:24:07;;;;;;;;;;;24.40;66.60;;;;;;6162169;23;19908;-96
2023/05/26 08:26:34;;;;;;;;;;;24.40;67.10;;;;;;6211116;23;19904;-97
2023/05/26 08:29:09;;;;;;;;;;;24.50;65.00;;;;;;6185828;23;19888;-96
2023/05/26 08:31:38;;;;;;;;;;;24.60;63.40;;;;;;6183336;23;19904;-96
2023/05/26 08:36:46;;;;;;;;;;;24.60;64.60;;;;;;6111163;22;19917;-96
2023/05/26 08:45:05;;;;;;;;;;;24.80;64.80;;;;;;6213319;23;19911;-96
2023/05/26 08:47:39;;;;;;;;;;;24.80;64.20;;;;;;6205395;23;19908;-96
2023/05/26 08:50:16;;;;;;;;;;;24.80;64.60;;;;;;6186884;23;19911;-96
2023/05/26 08:53:00;;;;;;;;;;;24.90;65.10;;;;;;6207448;23;19892;-96
2023/05/26 08:55:34;;;;;;;;;;;25.00;65.70;;;;;;6212448;23;19943;-96
2023/05/26 08:58:13;;;;;;;;;;;25.00;64.70;;;;;;6187556;23;19908;-96
2023/05/26 09:00:42;;;;;;;;;;;25.10;63.30;;;;;;6179267;23;19899;-96
2023/05/26 09:03:33;;;;;;;;;;;25.20;64.80;;;;;;6208553;23;19913;-96
2023/05/26 09:06:13;;;;;;;;;;;25.20;64.30;;;;;;6155377;23;19897;-96
2023/05/26 09:47:56;;;;;;;;;;;26.10;60.20;;;;;;6125583;22;19911;-96
2023/05/26 09:50:28;;;;;;;;;;;26.00;62.70;;;;;;6183303;23;19936;-96
2023/05/26 09:53:29;;;;;;;;;;;25.90;59.30;;;;;;6162424;23;19904;-96
2023/05/26 09:56:06;;;;;;;;;;;25.90;60.40;;;;;;6149099;23;19916;-96
2023/05/26 09:58:38;;;;;;;;;;;25.80;61.10;;;;;;6156366;23;19927;-96
2023/05/26 10:01:21;;;;;;;;;;;25.70;61.00;;;;;;6153974;23;19892;-96
2023/05/26 10:03:51;;;;;;;;;;;25.70;60.10;;;;;;6086209;23;19909;-96
2023/05/26 10:06:28;;;;;;;;;;;25.60;59.00;;;;;;6155097;23;19897;-96
2023/05/26 10:09:10;;;;;;;;;;;25.60;60.60;;;;;;6183911;23;19892;-96
2023/05/26 10:11:43;;;;;;;;;;;25.70;61.20;;;;;;6159733;23;19908;-96
2023/05/26 10:14:12;;;;;;;;;;;25.90;62.10;;;;;;6179925;23;19907;-96
2023/05/26 10:31:07;;;;;;;;;;;26.30;56.10;;;;;;6112360;22;19912;-96
2023/05/26 10:33:44;;;;;;;;;;;26.20;56.10;;;;;;6183312;23;19915;-96
2023/05/26 10:36:34;;;;;;;;;;;26.20;57.20;;;;;;6189683;23;19928;-96
2023/05/26 11:36:54;;;;;;;;;;;27.80;52.00;;;;;;6105073;23;19932;-96
2023/05/26 11:39:26;;;;;;;;;;;27.90;48.70;;;;;;6185301;23;19916;-96
2023/05/26 11:47:29;;;;;;;;;;;27.80;50.20;;;;;;6144092;23;19905;-96
2023/05/26 14:27:44;;;;;;;;;;;36.20;32.10;;;;;;6114646;23;19931;-96
2023/05/26 14:30:11;;;;;;;;;;;36.10;32.70;;;;;;6162124;23;19909;-95
2023/05/26 14:32:37;;;;;;;;;;;35.90;33.40;;;;;;6136201;23;20255;-94
2023/05/26 14:35:03;;;;;;;;;;;35.80;33.70;;;;;;6140751;23;19928;-95
2023/05/26 14:37:29;;;;;;;;;;;35.70;33.90;;;;;;6131124;23;19905;-93
2023/05/26 14:39:55;;;;;;;;;;;35.80;35.10;;;;;;6162533;23;19987;-96
2023/05/26 14:42:20;;;;;;;;;;;35.60;35.20;;;;;;6135159;23;19959;-94
2023/05/26 14:44:46;;;;;;;;;;;35.20;36.00;;;;;;6157690;23;19913;-96
2023/05/26 14:47:12;;;;;;;;;;;34.70;36.60;;;;;;6155982;23;19916;-95
2023/05/26 14:49:37;;;;;;;;;;;34.30;36.40;;;;;;6165801;23;19955;-96
2023/05/26 14:52:03;;;;;;;;;;;33.40;39.70;;;;;;6194280;23;19927;-96
2023/05/26 14:54:29;;;;;;;;;;;32.80;38.90;;;;;;6191946;23;19908;-94
2023/05/26 14:56:54;;;;;;;;;;;32.20;39.70;;;;;;6188939;23;19959;-96
2023/05/26 14:59:20;;;;;;;;;;;31.80;40.80;;;;;;6192923;23;19959;-93
2023/05/26 15:01:45;;;;;;;;;;;31.60;41.10;;;;;;6162483;23;20310;-96
2023/05/26 15:04:11;;;;;;;;;;;31.50;40.40;;;;;;6192307;23;19908;-95
2023/05/26 15:06:38;;;;;;;;;;;31.30;41.70;;;;;;6189070;23;19905;-95
2023/05/26 15:09:04;;;;;;;;;;;31.00;44.10;;;;;;6191963;23;19904;-96
2023/05/26 15:11:33;;;;;;;;;;;30.70;44.80;;;;;;6192339;23;19912;-96
2023/05/26 15:13:59;;;;;;;;;;;30.50;44.00;;;;;;6200013;23;19914;-95
2023/05/26 15:16:25;;;;;;;;;;;30.30;44.90;;;;;;6189820;23;19979;-93
2023/05/26 15:21:26;;;;;;;;;;;29.80;45.60;;;;;;6161203;23;19921;-95
2023/05/26 15:23:52;;;;;;;;;;;29.80;46.70;;;;;;6187906;23;19912;-95
2023/05/26 15:26:17;;;;;;;;;;;29.70;46.60;;;;;;6187953;23;19904;-94
2023/05/26 15:28:43;;;;;;;;;;;29.70;47.10;;;;;;6165126;23;19921;-96
2023/05/26 15:31:09;;;;;;;;;;;29.50;47.00;;;;;;6164561;23;19905;-96
2023/05/26 15:33:36;;;;;;;;;;;29.50;48.20;;;;;;6166334;23;19905;-95
2023/05/26 15:36:02;;;;;;;;;;;29.40;49.80;;;;;;6171801;23;19930;-95
2023/05/26 15:38:28;;;;;;;;;;;29.20;49.40;;;;;;6196454;23;19904;-96
2023/05/26 23:55:54;;;;;;;;;;;20.20;77.60;;;;;;6150158;23;19920;-96
2023/05/26 23:58:25;;;;;;;;;;;19.80;81.40;;;;;;6183930;23;19915;-96
